ESNG

Gällivare Airport

Gällivare, Sweden
METAR ESNG 191950Z AUTO 28003KT 240V310 9999 DZ SCT010/// BKN013/// 11/10 Q0988
Observed Flight Rules
Jun-19 @ 19:50 UTC (22 minutes ago) Marginal Visual Flight Rules
Wind Visibility Clouds Conditions
280° at 3 knots 10,000+ meters
  • Scattered at 1,000' AGL
  • Broken at 1,300' AGL
  • Drizzle
Temperatures Readings
Current 11°C / 52°F
Dewpoint 10°C / 50°F
Humidity 94%
Altimeter 29.17" Hg
Pressure 988 hPa
Elevation 310
METAR ESNG 191950Z AUTO 28003KT 240V310 9999 DZ SCT010/// BKN013/// 11/10 Q0988
Observed Flight Rules
Jun-19 @ 19:50 UTC
(22 minutes ago)
MVFR
Wind Visibility
280° at 3 knots 10,000+ meters
Clouds
  • Scattered at 1,000' AGL
  • Broken at 1,300' AGL
Conditions
  • Drizzle
Temperature Dewpoint
11°C / 52°F 10°C / 50°F
Humidity Altimeter Pressure
94% 29.17" Hg 988 hPa